createdAt,value
2022-08-04T00:01:23.704Z,23.43
2022-08-04T00:03:55.517Z,23.29
2022-08-04T00:06:25.459Z,23.19
2022-08-04T00:08:56.538Z,22.94
2022-08-04T00:11:25.225Z,22.96
2022-08-04T00:14:03.273Z,22.61
2022-08-04T00:16:38.526Z,22.51
2022-08-04T00:19:08.418Z,22.89
2022-08-04T00:21:37.734Z,22.93
2022-08-04T00:24:11.969Z,22.73
2022-08-04T00:26:41.202Z,22.77
2022-08-04T00:29:09.207Z,22.57
2022-08-04T00:31:56.379Z,22.51
2022-08-04T00:34:25.627Z,22.53
2022-08-04T00:36:53.689Z,22.49
2022-08-04T00:39:23.666Z,22.47
2022-08-04T00:41:56.784Z,22.43
2022-08-04T00:44:28.294Z,22.45
2022-08-04T00:47:06.167Z,22.43
2022-08-04T00:49:58.017Z,22.45
2022-08-04T00:52:38.100Z,22.42
2022-08-04T00:55:12.519Z,22.31
2022-08-04T00:57:50.464Z,22.19
2022-08-04T01:00:18.684Z,22.21
2022-08-04T01:02:50.902Z,21.87
2022-08-04T01:05:21.924Z,22.04
2022-08-04T01:08:02.440Z,22.05
2022-08-04T01:10:36.962Z,22.00
2022-08-04T01:13:15.400Z,21.88
2022-08-04T01:15:57.135Z,21.75
2022-08-04T01:18:31.943Z,21.77
2022-08-04T01:21:07.561Z,21.84
2022-08-04T01:23:50.553Z,21.68
2022-08-04T01:26:43.994Z,21.60
2022-08-04T01:29:24.646Z,21.35
2022-08-04T01:32:02.019Z,21.29
2022-08-04T01:34:32.391Z,21.30
2022-08-04T01:37:01.599Z,21.39
2022-08-04T01:39:44.526Z,21.33
2022-08-04T01:42:12.939Z,21.21
2022-08-04T01:45:01.119Z,21.17
2022-08-04T01:47:30.361Z,21.15
2022-08-04T01:50:01.414Z,20.92
2022-08-04T01:52:29.403Z,20.83
2022-08-04T01:54:57.505Z,20.99
2022-08-04T01:57:38.576Z,20.97
2022-08-04T02:00:09.832Z,21.02
2022-08-04T02:02:38.218Z,21.02
2022-08-04T02:05:06.572Z,20.96
2022-08-04T02:07:41.809Z,20.66
2022-08-04T02:10:12.012Z,20.66
2022-08-04T02:12:44.216Z,20.71
2022-08-04T02:15:15.135Z,20.98
2022-08-04T02:17:46.521Z,21.14
2022-08-04T02:20:17.092Z,20.86
2022-08-04T02:22:47.922Z,20.78
2022-08-04T02:25:17.746Z,20.65
2022-08-04T02:28:00.371Z,20.59
2022-08-04T02:30:33.238Z,20.70
2022-08-04T02:33:02.912Z,20.64
2022-08-04T02:35:30.954Z,20.58
2022-08-04T02:38:01.839Z,20.29
2022-08-04T02:40:29.845Z,19.92
2022-08-04T02:42:57.907Z,19.92
2022-08-04T02:45:26.743Z,20.22
2022-08-04T02:48:23.705Z,20.39
2022-08-04T02:50:44.427Z,20.55
2022-08-04T02:53:13.970Z,20.54
2022-08-04T02:55:42.197Z,20.48
2022-08-04T02:58:21.399Z,20.33
2022-08-04T03:00:49.738Z,20.46
2022-08-04T03:03:21.504Z,20.29
2022-08-04T03:06:01.667Z,20.03
2022-08-04T03:08:43.778Z,19.92
2022-08-04T03:11:23.840Z,20.30
2022-08-04T03:14:10.458Z,20.05
2022-08-04T03:16:47.191Z,20.07
2022-08-04T03:19:39.027Z,20.20
2022-08-04T03:22:30.666Z,20.30
2022-08-04T03:25:06.893Z,20.24
2022-08-04T03:27:55.617Z,19.98
2022-08-04T03:30:24.803Z,20.02
2022-08-04T03:33:25.985Z,20.21
2022-08-04T03:36:02.846Z,20.18
2022-08-04T03:38:41.532Z,20.17
2022-08-04T03:41:51.823Z,19.57
2022-08-04T03:44:31.217Z,19.84
2022-08-04T03:47:08.630Z,19.98
2022-08-04T03:49:41.094Z,19.92
2022-08-04T03:52:27.954Z,20.02
2022-08-04T03:55:12.509Z,20.06
2022-08-04T03:57:53.556Z,19.85
2022-08-04T04:00:21.660Z,19.80
2022-08-04T04:03:07.396Z,19.66
2022-08-04T04:06:02.160Z,19.72
2022-08-04T04:08:54.780Z,19.92
2022-08-04T04:11:55.306Z,19.68
2022-08-04T04:14:28.599Z,19.98
2022-08-04T04:17:00.292Z,20.16
2022-08-04T04:19:34.960Z,20.15
2022-08-04T04:22:06.434Z,20.57
2022-08-04T04:24:35.247Z,22.03
2022-08-04T04:27:07.866Z,22.82
2022-08-04T04:29:52.412Z,23.59
2022-08-04T04:32:24.815Z,24.26
2022-08-04T04:35:00.911Z,24.89
2022-08-04T04:37:33.524Z,25.52
2022-08-04T04:40:05.191Z,25.90
2022-08-04T04:42:40.266Z,26.34
2022-08-04T04:45:16.465Z,26.51
2022-08-04T04:48:08.536Z,27.10
2022-08-04T04:50:38.220Z,27.83
2022-08-04T04:53:08.340Z,28.16
2022-08-04T04:55:36.722Z,27.43
2022-08-04T04:58:06.089Z,28.03
2022-08-04T05:00:35.920Z,28.14
2022-08-04T05:03:13.909Z,28.36
2022-08-04T05:05:44.884Z,28.52
2022-08-04T05:08:43.576Z,29.03
2022-08-04T05:11:18.935Z,29.41
2022-08-04T05:14:38.857Z,29.82
2022-08-04T05:16:38.474Z,30.03
2022-08-04T05:19:09.962Z,29.70
2022-08-04T05:21:39.616Z,29.95
2022-08-04T05:24:08.181Z,28.77
2022-08-04T05:26:36.851Z,28.11
2022-08-04T05:29:08.241Z,26.74
2022-08-04T05:31:37.783Z,27.02
2022-08-04T05:34:07.083Z,27.65
2022-08-04T05:36:41.508Z,28.04
2022-08-04T05:39:13.466Z,28.27
2022-08-04T05:41:45.300Z,27.90
2022-08-04T05:44:15.808Z,27.82
2022-08-04T05:46:43.937Z,27.81
2022-08-04T05:49:12.702Z,28.27
2022-08-04T05:51:47.779Z,27.83
2022-08-04T05:54:16.015Z,26.74
2022-08-04T05:56:44.109Z,26.45
2022-08-04T05:59:12.185Z,26.72
2022-08-04T06:01:55.540Z,27.13
2022-08-04T06:04:24.229Z,26.28
2022-08-04T06:06:52.234Z,26.83
2022-08-04T06:09:20.259Z,26.96
2022-08-04T06:12:00.433Z,26.74
2022-08-04T06:14:33.778Z,26.11
2022-08-04T06:17:03.415Z,26.90
2022-08-04T06:20:00.623Z,26.01
2022-08-04T06:22:19.585Z,26.74
2022-08-04T06:24:48.102Z,26.60
2022-08-04T06:27:16.103Z,27.39
2022-08-04T06:29:51.264Z,27.39
2022-08-04T06:32:34.760Z,27.06
2022-08-04T06:35:06.065Z,27.78
2022-08-04T06:37:42.247Z,26.85
2022-08-04T06:40:29.934Z,27.73
2022-08-04T06:43:01.164Z,28.15
2022-08-04T06:45:29.324Z,28.31
2022-08-04T06:47:58.735Z,28.59
2022-08-04T06:51:30.429Z,28.49
2022-08-04T06:53:14.973Z,28.21
2022-08-04T06:55:44.098Z,28.43
2022-08-04T06:58:12.413Z,28.34
2022-08-04T07:00:40.750Z,28.62
2022-08-04T07:03:10.283Z,28.81
2022-08-04T07:05:38.337Z,28.03
2022-08-04T07:08:06.398Z,28.86
2022-08-04T07:10:34.451Z,28.08
2022-08-04T07:13:02.498Z,28.58
2022-08-04T07:15:30.540Z,28.66
2022-08-04T07:18:01.433Z,28.80
2022-08-04T07:20:35.478Z,29.55
2022-08-04T07:23:04.728Z,30.05
2022-08-04T07:26:01.064Z,30.10
2022-08-04T07:28:20.930Z,29.97
2022-08-04T07:30:49.202Z,30.45
2022-08-04T07:33:17.278Z,30.67
2022-08-04T07:36:05.818Z,30.36
2022-08-04T07:38:37.935Z,30.58
2022-08-04T07:44:03.513Z,30.16
2022-08-04T07:46:31.838Z,29.92
2022-08-04T07:49:01.078Z,31.01
2022-08-04T07:51:30.928Z,30.69
2022-08-04T07:54:00.294Z,31.63
2022-08-04T07:56:28.316Z,31.08
2022-08-04T07:58:56.385Z,31.21
2022-08-04T08:01:24.436Z,31.25
2022-08-04T08:03:52.707Z,31.49
2022-08-04T08:06:32.316Z,31.54
2022-08-04T08:09:13.150Z,32.09
2022-08-04T08:12:37.369Z,31.63
2022-08-04T08:14:31.480Z,31.82
2022-08-04T08:16:59.766Z,31.10
2022-08-04T08:19:27.774Z,32.36
2022-08-04T08:21:59.588Z,32.43
2022-08-04T08:24:29.730Z,32.73
2022-08-04T08:26:57.860Z,32.63
2022-08-04T08:29:26.074Z,32.39
2022-08-04T08:31:58.238Z,32.75
2022-08-04T08:34:29.123Z,32.54
2022-08-04T08:36:59.355Z,32.57
2022-08-04T08:39:30.174Z,32.96
2022-08-04T08:42:13.050Z,32.54
2022-08-04T08:44:57.988Z,32.47
2022-08-04T08:47:29.613Z,32.78
2022-08-04T08:50:19.782Z,32.49
2022-08-04T08:53:02.590Z,32.76
2022-08-04T08:55:37.971Z,33.16
2022-08-04T08:58:13.113Z,33.49
2022-08-04T09:00:43.804Z,33.27
2022-08-04T09:03:28.662Z,33.43
2022-08-04T09:06:06.581Z,33.00
2022-08-04T09:08:49.828Z,33.52
2022-08-04T09:11:20.215Z,33.57
2022-08-04T09:13:49.612Z,33.92
2022-08-04T09:16:18.489Z,33.85
2022-08-04T09:18:48.444Z,33.52
2022-08-04T09:21:18.727Z,33.25
2022-08-04T09:23:47.963Z,33.77
2022-08-04T09:26:17.414Z,33.40
2022-08-04T09:28:54.054Z,34.00
2022-08-04T09:31:23.778Z,34.37
2022-08-04T09:33:53.079Z,33.86
2022-08-04T09:36:27.356Z,33.81
2022-08-04T09:39:01.742Z,33.11
2022-08-04T09:41:49.530Z,33.25
2022-08-04T09:44:49.905Z,33.49
2022-08-04T09:47:12.553Z,33.57
2022-08-04T09:49:41.538Z,34.01
2022-08-04T09:52:11.394Z,34.52
2022-08-04T09:57:36.304Z,34.42
2022-08-04T10:00:06.559Z,34.65
2022-08-04T10:02:46.505Z,34.91
2022-08-04T10:05:16.199Z,35.48
2022-08-04T10:08:04.624Z,35.29
2022-08-04T10:10:40.040Z,35.18
2022-08-04T10:13:15.560Z,35.40
2022-08-04T10:15:47.004Z,35.45
2022-08-04T10:18:21.042Z,35.56
2022-08-04T10:21:08.068Z,35.85
2022-08-04T10:23:56.405Z,35.69
2022-08-04T10:26:30.752Z,35.30
2022-08-04T10:29:01.227Z,35.77
2022-08-04T10:31:31.813Z,35.54
2022-08-04T10:34:01.474Z,35.52
2022-08-04T10:36:29.951Z,36.13
2022-08-04T10:38:58.867Z,35.98
2022-08-04T10:41:29.001Z,36.28
2022-08-04T10:44:00.270Z,36.47
2022-08-04T10:46:34.995Z,36.24
2022-08-04T10:49:04.244Z,36.21
2022-08-04T10:51:57.818Z,35.50
2022-08-04T10:54:26.167Z,36.02
2022-08-04T10:56:56.901Z,36.27
2022-08-04T10:59:26.234Z,36.34
2022-08-04T11:02:01.891Z,36.69
2022-08-04T11:04:32.833Z,36.73
2022-08-04T11:07:00.909Z,36.65
2022-08-04T11:09:30.009Z,36.26
2022-08-04T11:12:01.354Z,36.53
2022-08-04T11:14:32.195Z,36.26
2022-08-04T11:17:02.314Z,36.04
2022-08-04T11:19:45.255Z,36.25
2022-08-04T11:22:20.069Z,37.10
2022-08-04T11:24:51.568Z,36.63
2022-08-04T11:27:21.873Z,37.11
2022-08-04T11:29:52.546Z,37.06
2022-08-04T11:32:22.498Z,37.58
2022-08-04T11:34:52.659Z,37.61
2022-08-04T11:37:22.903Z,37.58
2022-08-04T11:39:51.875Z,36.93
2022-08-04T11:42:21.320Z,36.66
2022-08-04T11:44:49.580Z,36.80
2022-08-04T11:47:25.741Z,37.06
2022-08-04T11:49:57.425Z,36.64
2022-08-04T11:52:26.377Z,37.14
2022-08-04T11:54:54.594Z,37.45
2022-08-04T11:57:25.792Z,37.59
2022-08-04T12:00:07.511Z,37.61
2022-08-04T12:02:55.797Z,37.13
2022-08-04T12:05:36.812Z,37.08
2022-08-04T12:08:12.484Z,37.05
2022-08-04T12:10:43.124Z,37.62
2022-08-04T12:13:17.425Z,37.54
2022-08-04T12:15:53.504Z,37.41
2022-08-04T12:18:24.692Z,37.55
2022-08-04T12:20:54.814Z,37.45
2022-08-04T12:23:24.161Z,37.83
2022-08-04T12:25:53.556Z,38.10
2022-08-04T12:28:24.680Z,37.75
2022-08-04T12:31:00.106Z,37.45
2022-08-04T12:34:02.743Z,37.85
2022-08-04T12:36:26.141Z,37.26
2022-08-04T12:38:57.343Z,37.14
2022-08-04T12:41:27.060Z,37.74
2022-08-04T12:43:55.530Z,38.11
2022-08-04T12:46:23.931Z,37.71
2022-08-04T12:48:53.487Z,37.82
2022-08-04T12:51:31.030Z,38.02
2022-08-04T12:54:12.223Z,37.53
2022-08-04T12:56:40.713Z,37.95
2022-08-04T12:59:12.725Z,38.49
2022-08-04T13:02:06.778Z,37.95
2022-08-04T13:04:30.761Z,37.75
2022-08-04T13:06:59.159Z,38.34
2022-08-04T13:09:33.169Z,37.97
2022-08-04T13:12:03.398Z,38.29
2022-08-04T13:14:33.253Z,38.15
2022-08-04T13:17:01.838Z,38.11
2022-08-04T13:19:31.256Z,38.44
2022-08-04T13:22:09.428Z,37.87
2022-08-04T13:24:56.985Z,38.30
2022-08-04T13:27:25.671Z,37.82
2022-08-04T13:29:59.457Z,37.99
2022-08-04T13:32:31.841Z,37.95
2022-08-04T13:35:01.437Z,38.51
2022-08-04T13:37:32.008Z,38.59
2022-08-04T13:40:00.008Z,38.47
2022-08-04T13:42:28.359Z,38.39
2022-08-04T13:44:57.603Z,38.22
2022-08-04T13:47:27.938Z,38.81
2022-08-04T13:50:15.248Z,38.91
2022-08-04T13:52:43.629Z,38.66
2022-08-04T13:55:19.248Z,37.94
2022-08-04T13:57:47.389Z,38.23
2022-08-04T14:00:17.003Z,38.17
2022-08-04T14:03:00.666Z,38.56
2022-08-04T14:05:35.394Z,38.78
2022-08-04T14:08:19.766Z,38.52
2022-08-04T14:10:54.744Z,39.07
2022-08-04T14:13:29.973Z,39.14
2022-08-04T14:16:16.068Z,38.78
2022-08-04T14:18:44.055Z,39.09
2022-08-04T14:21:13.753Z,39.13
2022-08-04T14:23:47.156Z,39.02
2022-08-04T14:26:17.223Z,38.96
2022-08-04T14:29:25.404Z,38.80
2022-08-04T14:31:33.496Z,39.00
2022-08-04T14:34:09.783Z,39.14
2022-08-04T14:37:16.405Z,38.11
2022-08-04T14:39:39.168Z,38.47
2022-08-04T14:42:07.474Z,38.10
2022-08-04T14:44:39.634Z,39.11
2022-08-04T14:47:13.266Z,39.21
2022-08-04T14:49:41.702Z,39.24
2022-08-04T14:52:23.618Z,39.25
2022-08-04T14:54:51.784Z,39.28
2022-08-04T14:57:19.983Z,39.46
2022-08-04T14:59:59.772Z,39.08
2022-08-04T15:02:30.571Z,38.53
2022-08-04T15:04:58.758Z,38.56
2022-08-04T15:07:29.766Z,38.08
2022-08-04T15:09:57.986Z,38.13
2022-08-04T15:12:26.014Z,38.11
2022-08-04T15:14:54.179Z,38.46
2022-08-04T15:17:29.108Z,38.52
2022-08-04T15:19:58.512Z,39.23
2022-08-04T15:22:28.258Z,39.07
2022-08-04T15:24:56.543Z,39.27
2022-08-04T15:27:25.408Z,38.95
2022-08-04T15:29:59.644Z,38.37
2022-08-04T15:32:29.658Z,37.98
2022-08-04T15:35:02.682Z,38.56
2022-08-04T15:37:32.519Z,37.92
2022-08-04T15:40:02.267Z,39.16
2022-08-04T15:42:31.983Z,38.86
2022-08-04T15:45:13.070Z,38.46
2022-08-04T15:47:41.084Z,38.24
2022-08-04T15:50:10.121Z,38.18
2022-08-04T15:53:01.154Z,38.14
2022-08-04T15:55:40.651Z,38.04
2022-08-04T15:58:09.457Z,37.91
2022-08-04T16:00:56.038Z,38.14
2022-08-04T16:03:59.302Z,38.11
2022-08-04T16:06:53.155Z,37.77
2022-08-04T16:09:21.998Z,38.12
2022-08-04T16:11:51.439Z,38.06
2022-08-04T16:14:19.510Z,37.63
2022-08-04T16:16:49.113Z,37.82
2022-08-04T16:19:24.378Z,37.64
2022-08-04T16:21:53.087Z,37.91
2022-08-04T16:24:25.254Z,37.34
2022-08-04T16:26:56.518Z,37.74
2022-08-04T16:29:28.581Z,37.62
2022-08-04T16:32:10.586Z,37.95
2022-08-04T16:34:50.245Z,37.75
2022-08-04T16:37:23.363Z,37.67
2022-08-04T16:39:52.031Z,37.45
2022-08-04T16:42:31.528Z,37.40
2022-08-04T16:45:00.072Z,37.30
2022-08-04T16:47:46.543Z,37.66
2022-08-04T16:50:15.035Z,37.35
2022-08-04T16:52:43.755Z,37.22
2022-08-04T16:55:11.880Z,37.35
2022-08-04T16:57:41.252Z,36.98
2022-08-04T17:00:10.062Z,37.01
2022-08-04T17:02:38.160Z,37.28
2022-08-04T17:05:08.163Z,37.47
2022-08-04T17:08:02.169Z,37.15
2022-08-04T17:10:39.043Z,37.35
2022-08-04T17:14:02.054Z,37.23
2022-08-04T17:16:18.474Z,38.11
2022-08-04T17:18:47.557Z,38.10
2022-08-04T17:21:16.826Z,38.36
2022-08-04T17:24:15.573Z,37.95
2022-08-04T17:26:39.972Z,38.67
2022-08-04T17:29:10.944Z,39.05
2022-08-04T17:31:40.714Z,39.76
2022-08-04T17:34:15.721Z,38.85
2022-08-04T17:36:44.851Z,38.88
2022-08-04T17:39:17.062Z,38.47
2022-08-04T17:44:38.106Z,38.94
2022-08-04T17:47:17.623Z,39.26
2022-08-04T17:49:53.246Z,39.40
2022-08-04T17:52:41.464Z,39.56
2022-08-04T17:55:16.523Z,40.05
2022-08-04T18:00:39.636Z,39.15
2022-08-04T18:03:09.229Z,39.24
2022-08-04T18:06:02.037Z,38.79
2022-08-04T18:08:34.639Z,38.35
2022-08-04T18:11:03.899Z,38.23
2022-08-04T18:13:42.918Z,37.43
2022-08-04T18:16:23.031Z,36.51
2022-08-04T18:19:06.664Z,36.91
2022-08-04T18:21:34.665Z,36.17
2022-08-04T18:24:15.302Z,35.87
2022-08-04T18:26:45.824Z,35.34
2022-08-04T18:32:03.327Z,35.06
2022-08-04T18:34:31.385Z,34.71
2022-08-04T18:36:59.764Z,34.61
2022-08-04T18:40:17.220Z,34.31
2022-08-04T18:42:17.957Z,33.98
2022-08-04T18:44:52.579Z,33.86
2022-08-04T18:47:23.394Z,33.96
2022-08-04T18:51:00.755Z,33.60
2022-08-04T18:52:45.323Z,33.50
2022-08-04T18:55:51.697Z,33.61
2022-08-04T18:58:07.280Z,33.46
2022-08-04T19:00:45.179Z,33.12
2022-08-04T19:03:16.543Z,32.91
2022-08-04T19:05:50.269Z,32.71
2022-08-04T19:08:34.479Z,32.63
2022-08-04T19:11:37.204Z,32.24
2022-08-04T19:13:54.596Z,32.05
2022-08-04T19:16:26.549Z,31.83
2022-08-04T19:18:56.074Z,31.56
2022-08-04T19:22:00.647Z,31.30
2022-08-04T19:24:31.676Z,31.40
2022-08-04T19:27:07.383Z,31.49
2022-08-04T19:29:37.601Z,31.38
2022-08-04T19:32:14.352Z,31.23
2022-08-04T19:34:45.988Z,31.15
2022-08-04T19:37:56.771Z,30.70
2022-08-04T19:40:04.633Z,30.55
2022-08-04T19:42:32.894Z,30.81
2022-08-04T19:45:00.929Z,30.82
2022-08-04T19:48:21.577Z,30.78
2022-08-04T19:50:19.675Z,30.70
2022-08-04T19:52:51.904Z,30.61
2022-08-04T19:55:22.267Z,30.48
2022-08-04T19:57:51.194Z,30.38
2022-08-04T20:00:33.450Z,30.33
2022-08-04T20:03:02.764Z,30.27
2022-08-04T20:05:52.576Z,30.23
2022-08-04T20:08:20.687Z,29.87
2022-08-04T20:10:51.814Z,29.69
2022-08-04T20:13:20.374Z,29.57
2022-08-04T20:15:57.369Z,29.82
2022-08-04T20:18:36.062Z,29.80
2022-08-04T20:21:19.567Z,29.59
2022-08-04T20:23:52.456Z,29.51
2022-08-04T20:26:20.716Z,29.39
2022-08-04T20:28:51.630Z,29.05
2022-08-04T20:31:20.523Z,28.99
2022-08-04T20:33:53.696Z,29.10
2022-08-04T20:36:24.964Z,28.95
2022-08-04T20:38:54.564Z,28.60
2022-08-04T20:41:22.746Z,28.54
2022-08-04T20:43:51.099Z,28.51
2022-08-04T20:46:29.042Z,28.58
2022-08-04T20:48:58.037Z,28.67
2022-08-04T20:54:22.973Z,28.33
2022-08-04T20:56:55.455Z,27.74
2022-08-04T20:59:23.445Z,28.04
2022-08-04T21:01:53.757Z,27.85
2022-08-04T21:04:35.700Z,27.76
2022-08-04T21:07:06.333Z,27.84
2022-08-04T21:09:37.859Z,27.87
2022-08-04T21:12:28.347Z,27.82
2022-08-04T21:14:57.831Z,27.90
2022-08-04T21:17:59.559Z,27.80
2022-08-04T21:20:14.115Z,27.66
2022-08-04T21:22:51.153Z,27.68
2022-08-04T21:25:19.411Z,27.58
2022-08-04T21:27:49.744Z,27.52
2022-08-04T21:30:26.016Z,27.54
2022-08-04T21:32:54.962Z,27.56
2022-08-04T21:35:30.830Z,27.51
2022-08-04T21:38:17.249Z,27.49
2022-08-04T21:40:53.563Z,27.35
2022-08-04T21:43:23.650Z,27.43
2022-08-04T21:45:55.620Z,27.41
2022-08-04T21:48:27.490Z,27.40
2022-08-04T21:50:56.020Z,27.37
2022-08-04T21:53:27.695Z,27.30
2022-08-04T21:56:05.638Z,27.31
2022-08-04T21:58:36.199Z,27.17
2022-08-04T22:01:06.079Z,26.97
2022-08-04T22:03:52.350Z,26.92
2022-08-04T22:06:28.371Z,27.03
2022-08-04T22:08:58.504Z,26.99
2022-08-04T22:11:27.571Z,26.97
2022-08-04T22:14:15.519Z,26.99
2022-08-04T22:16:44.949Z,26.96
2022-08-04T22:19:13.547Z,26.96
2022-08-04T22:21:46.694Z,26.92
2022-08-04T22:24:16.271Z,26.89
2022-08-04T22:26:44.427Z,26.87
2022-08-04T22:29:14.634Z,26.54
2022-08-04T22:31:55.680Z,26.56
2022-08-04T22:34:25.273Z,26.67
2022-08-04T22:36:53.745Z,26.65
2022-08-04T22:39:27.486Z,26.68
2022-08-04T22:42:03.802Z,26.61
2022-08-04T22:44:33.276Z,26.52
2022-08-04T22:47:01.738Z,26.38
2022-08-04T22:49:31.734Z,26.25
2022-08-04T22:52:02.881Z,26.19
2022-08-04T22:54:39.447Z,26.17
2022-08-04T22:57:08.733Z,26.20
2022-08-04T22:59:42.839Z,26.11
2022-08-04T23:02:11.135Z,26.03
2022-08-04T23:04:39.158Z,25.61
2022-08-04T23:07:09.588Z,25.36
2022-08-04T23:09:50.661Z,25.76
2022-08-04T23:12:27.473Z,25.51
2022-08-04T23:14:56.429Z,25.62
2022-08-04T23:17:25.294Z,25.43
2022-08-04T23:19:58.063Z,25.11
2022-08-04T23:22:41.271Z,24.99
2022-08-04T23:25:15.214Z,24.78
2022-08-04T23:27:51.038Z,25.02
2022-08-04T23:30:21.919Z,25.04
2022-08-04T23:32:53.239Z,25.33
2022-08-04T23:35:21.991Z,24.91
2022-08-04T23:37:57.650Z,24.96
2022-08-04T23:40:32.468Z,25.14
2022-08-04T23:43:02.050Z,25.01
2022-08-04T23:46:04.169Z,25.07
2022-08-04T23:48:21.097Z,25.14
2022-08-04T23:50:49.990Z,24.84
2022-08-04T23:53:18.386Z,24.96
2022-08-04T23:55:51.920Z,24.80
2022-08-04T23:58:26.864Z,24.83
